createdAt,value
2023-01-15T00:02:18.575Z,8.50
2023-01-15T00:04:46.824Z,8.30
2023-01-15T00:07:14.820Z,8.30
2023-01-15T00:09:44.701Z,8.10
2023-01-15T00:12:12.762Z,8.20
2023-01-15T00:14:41.094Z,8.10
2023-01-15T00:17:09.611Z,8.20
2023-01-15T00:19:38.187Z,8.30
2023-01-15T00:22:06.243Z,8.20
2023-01-15T00:24:51.717Z,8.30
2023-01-15T00:27:41.113Z,8.20
2023-01-15T00:30:16.012Z,8.10
2023-01-15T00:32:45.691Z,8.40
2023-01-15T00:35:16.624Z,8.40
2023-01-15T00:37:45.546Z,8.80
2023-01-15T00:40:15.395Z,8.70
2023-01-15T00:42:53.545Z,8.60
2023-01-15T00:45:24.103Z,8.80
2023-01-15T00:47:52.574Z,8.70
2023-01-15T00:50:22.215Z,8.30
2023-01-15T00:52:50.270Z,8.10
2023-01-15T00:55:18.942Z,8.20
2023-01-15T00:57:48.337Z,8.40
2023-01-15T01:00:17.307Z,8.50
2023-01-15T01:02:46.509Z,8.20
2023-01-15T01:05:14.562Z,8.20
2023-01-15T01:07:43.375Z,8.10
2023-01-15T01:10:12.634Z,8.10
2023-01-15T01:12:41.017Z,8.20
2023-01-15T01:15:14.530Z,8.40
2023-01-15T01:17:43.503Z,8.30
2023-01-15T01:20:13.857Z,8.20
2023-01-15T01:22:43.687Z,8.60
2023-01-15T01:25:11.794Z,8.70
2023-01-15T01:27:40.238Z,8.90
2023-01-15T01:30:11.922Z,8.90
2023-01-15T01:32:44.440Z,8.70
2023-01-15T01:35:12.973Z,8.70
2023-01-15T01:37:40.989Z,8.90
2023-01-15T01:40:10.915Z,9.00
2023-01-15T01:42:39.502Z,8.90
2023-01-15T01:45:27.157Z,8.50
2023-01-15T01:48:00.716Z,8.50
2023-01-15T01:50:30.895Z,8.60
2023-01-15T01:53:04.988Z,8.70
2023-01-15T01:55:34.925Z,8.90
2023-01-15T01:58:07.772Z,9.00
2023-01-15T02:00:45.857Z,9.20
2023-01-15T02:03:19.737Z,9.00
2023-01-15T02:05:53.036Z,8.70
2023-01-15T02:08:21.087Z,8.70
2023-01-15T02:10:54.089Z,8.60
2023-01-15T02:13:36.704Z,8.40
2023-01-15T02:16:12.453Z,8.40
2023-01-15T02:18:45.565Z,8.40
2023-01-15T02:21:24.338Z,8.50
2023-01-15T02:24:06.156Z,8.40
2023-01-15T02:27:03.402Z,8.40
2023-01-15T02:29:43.589Z,8.40
2023-01-15T02:32:18.458Z,8.60
2023-01-15T02:34:51.363Z,8.70
2023-01-15T02:37:27.741Z,8.40
2023-01-15T02:40:01.738Z,8.50
2023-01-15T02:42:37.527Z,8.60
2023-01-15T02:45:10.305Z,8.60
2023-01-15T02:47:43.816Z,8.40
2023-01-15T02:50:16.610Z,8.60
2023-01-15T02:52:50.836Z,8.60
2023-01-15T02:55:25.438Z,8.50
2023-01-15T02:58:01.329Z,8.20
2023-01-15T03:00:36.465Z,8.20
2023-01-15T03:03:14.184Z,8.40
2023-01-15T03:05:49.948Z,8.30
2023-01-15T03:08:19.811Z,8.40
2023-01-15T03:11:01.327Z,8.60
2023-01-15T03:13:41.463Z,8.40
2023-01-15T03:16:33.078Z,8.50
2023-01-15T03:19:08.807Z,8.20
2023-01-15T03:21:47.496Z,8.30
2023-01-15T03:24:26.747Z,8.30
2023-01-15T03:26:56.923Z,8.30
2023-01-15T03:29:34.367Z,8.50
2023-01-15T03:32:04.013Z,8.50
2023-01-15T03:34:38.281Z,8.30
2023-01-15T03:37:08.373Z,8.30
2023-01-15T03:39:38.538Z,8.40
2023-01-15T03:43:13.564Z,8.50
2023-01-15T03:45:47.166Z,8.60
2023-01-15T03:48:26.220Z,8.60
2023-01-15T03:51:04.773Z,8.70
2023-01-15T03:53:41.421Z,8.80
2023-01-15T03:56:15.369Z,8.80
2023-01-15T03:58:52.360Z,8.80
2023-01-15T04:01:34.109Z,8.70
2023-01-15T04:04:04.036Z,8.70
2023-01-15T04:06:36.806Z,8.80
2023-01-15T04:09:09.171Z,8.70
2023-01-15T04:11:40.019Z,8.70
2023-01-15T04:14:09.590Z,8.60
2023-01-15T04:16:49.370Z,8.50
2023-01-15T04:19:19.039Z,8.50
2023-01-15T04:22:07.322Z,8.60
2023-01-15T04:24:36.368Z,8.70
2023-01-15T04:27:04.561Z,8.60
2023-01-15T04:29:33.253Z,8.60
2023-01-15T04:32:03.153Z,8.70
2023-01-15T04:34:31.341Z,8.60
2023-01-15T04:37:00.391Z,8.50
2023-01-15T04:39:31.157Z,8.40
2023-01-15T04:42:18.879Z,8.50
2023-01-15T04:44:48.134Z,8.50
2023-01-15T04:47:17.719Z,8.10
2023-01-15T04:49:45.892Z,8.30
2023-01-15T04:52:14.752Z,8.10
2023-01-15T04:54:43.002Z,8.10
2023-01-15T04:57:13.660Z,8.20
2023-01-15T04:59:41.721Z,8.10
2023-01-15T05:02:10.851Z,8.20
2023-01-15T05:04:41.930Z,8.30
2023-01-15T05:07:11.505Z,8.30
2023-01-15T05:09:40.716Z,8.30
2023-01-15T05:12:10.819Z,8.60
2023-01-15T05:14:40.801Z,8.70
2023-01-15T05:17:08.876Z,8.50
2023-01-15T05:19:36.866Z,8.30
2023-01-15T05:22:10.677Z,8.30
2023-01-15T05:24:38.727Z,8.40
2023-01-15T05:27:06.716Z,8.10
2023-01-15T05:29:36.804Z,8.10
2023-01-15T05:32:09.519Z,8.50
2023-01-15T05:34:37.826Z,8.70
2023-01-15T05:37:06.253Z,8.20
2023-01-15T05:39:38.710Z,8.10
2023-01-15T05:42:07.816Z,8.10
2023-01-15T05:44:36.940Z,8.20
2023-01-15T05:47:07.454Z,8.10
2023-01-15T05:49:36.615Z,8.10
2023-01-15T05:52:05.159Z,8.30
2023-01-15T05:54:37.557Z,8.20
2023-01-15T05:57:06.187Z,8.30
2023-01-15T05:59:35.002Z,8.10
2023-01-15T06:02:04.070Z,8.40
2023-01-15T06:04:32.610Z,8.20
2023-01-15T06:07:02.225Z,8.00
2023-01-15T06:09:30.277Z,8.20
2023-01-15T06:12:00.837Z,8.20
2023-01-15T06:14:29.068Z,8.00
2023-01-15T06:16:59.383Z,7.80
2023-01-15T06:19:28.287Z,8.10
2023-01-15T06:21:56.364Z,8.10
2023-01-15T06:24:25.100Z,8.30
2023-01-15T06:26:53.649Z,8.30
2023-01-15T06:29:23.632Z,8.20
2023-01-15T06:31:52.140Z,8.20
2023-01-15T06:34:20.209Z,8.10
2023-01-15T06:36:48.706Z,8.10
2023-01-15T06:39:17.121Z,8.10
2023-01-15T06:42:01.682Z,8.20
2023-01-15T06:44:50.916Z,8.30
2023-01-15T06:47:25.919Z,8.20
2023-01-15T06:49:55.969Z,8.20
2023-01-15T06:52:27.891Z,8.10
2023-01-15T06:54:55.974Z,8.20
2023-01-15T06:57:24.735Z,8.20
2023-01-15T06:59:54.869Z,8.30
2023-01-15T07:02:23.085Z,8.30
2023-01-15T07:04:52.425Z,8.30
2023-01-15T07:07:22.850Z,8.30
2023-01-15T07:09:51.364Z,8.10
2023-01-15T07:12:22.067Z,8.20
2023-01-15T07:14:50.173Z,8.20
2023-01-15T07:17:19.986Z,8.20
2023-01-15T07:19:48.572Z,8.00
2023-01-15T07:22:17.629Z,7.90
2023-01-15T07:24:45.675Z,7.90
2023-01-15T07:27:14.595Z,8.00
2023-01-15T07:29:42.612Z,8.30
2023-01-15T07:32:11.847Z,8.00
2023-01-15T07:34:41.231Z,8.10
2023-01-15T07:37:11.506Z,8.00
2023-01-15T07:39:39.934Z,7.60
2023-01-15T07:42:28.942Z,7.70
2023-01-15T07:45:14.919Z,7.90
2023-01-15T07:48:00.820Z,7.80
2023-01-15T07:50:30.643Z,7.80
2023-01-15T07:52:59.083Z,7.90
2023-01-15T07:55:27.998Z,7.80
2023-01-15T07:57:58.220Z,7.80
2023-01-15T08:00:26.806Z,7.90
2023-01-15T08:02:55.524Z,8.00
2023-01-15T08:05:23.530Z,8.30
2023-01-15T08:07:53.315Z,7.90
2023-01-15T08:10:22.157Z,7.80
2023-01-15T08:13:09.880Z,7.70
2023-01-15T08:15:43.748Z,7.90
2023-01-15T08:18:15.634Z,7.90
2023-01-15T08:20:46.151Z,8.10
2023-01-15T08:23:19.664Z,7.70
2023-01-15T08:25:47.708Z,7.60
2023-01-15T08:28:15.774Z,7.50
2023-01-15T08:30:44.949Z,7.50
2023-01-15T08:33:13.138Z,7.50
2023-01-15T08:35:41.527Z,7.60
2023-01-15T08:38:10.912Z,7.60
2023-01-15T08:40:58.509Z,7.40
2023-01-15T08:43:28.524Z,7.50
2023-01-15T08:45:58.954Z,7.70
2023-01-15T08:48:29.251Z,7.80
2023-01-15T08:50:57.595Z,7.80
2023-01-15T08:53:26.827Z,7.80
2023-01-15T08:55:57.207Z,7.80
2023-01-15T08:58:25.643Z,7.60
2023-01-15T09:00:53.697Z,7.40
2023-01-15T09:03:21.832Z,7.50
2023-01-15T09:05:49.908Z,7.50
2023-01-15T09:08:19.683Z,7.50
2023-01-15T09:10:48.431Z,7.40
2023-01-15T09:13:17.870Z,7.50
2023-01-15T09:15:45.978Z,7.50
2023-01-15T09:18:16.791Z,7.50
2023-01-15T09:20:44.832Z,7.30
2023-01-15T09:23:12.831Z,7.40
2023-01-15T09:25:41.154Z,7.60
2023-01-15T09:28:09.407Z,7.50
2023-01-15T09:30:39.587Z,7.50
2023-01-15T09:33:07.668Z,7.50
2023-01-15T09:35:36.827Z,7.30
2023-01-15T09:38:05.580Z,7.40
2023-01-15T09:40:47.374Z,7.40
2023-01-15T09:43:30.934Z,7.40
2023-01-15T09:46:03.055Z,7.40
2023-01-15T09:48:49.559Z,7.40
2023-01-15T09:51:30.398Z,7.40
2023-01-15T09:54:17.426Z,7.40
2023-01-15T09:56:47.282Z,7.60
2023-01-15T09:59:23.877Z,7.70
2023-01-15T10:01:54.694Z,7.50
2023-01-15T10:04:35.692Z,7.60
2023-01-15T10:07:09.675Z,7.50
2023-01-15T10:09:41.942Z,7.40
2023-01-15T10:12:36.148Z,7.60
2023-01-15T10:15:16.439Z,7.60
2023-01-15T10:17:48.584Z,7.50
2023-01-15T10:20:19.553Z,7.60
2023-01-15T10:23:06.098Z,7.70
2023-01-15T10:25:41.986Z,7.60
2023-01-15T10:28:21.261Z,7.50
2023-01-15T10:30:54.134Z,7.40
2023-01-15T10:33:52.659Z,7.40
2023-01-15T10:36:27.340Z,7.60
2023-01-15T10:39:02.931Z,7.50
2023-01-15T10:41:54.946Z,7.30
2023-01-15T10:44:31.562Z,7.30
2023-01-15T10:47:02.738Z,7.40
2023-01-15T10:49:34.255Z,7.50
2023-01-15T10:52:10.949Z,7.60
2023-01-15T10:54:44.132Z,7.50
2023-01-15T10:57:18.550Z,7.50
2023-01-15T10:59:52.012Z,7.60
2023-01-15T11:02:26.832Z,7.60
2023-01-15T11:04:57.191Z,7.70
2023-01-15T11:07:32.259Z,7.80
2023-01-15T11:10:06.297Z,7.90
2023-01-15T11:12:53.508Z,7.80
2023-01-15T11:15:43.194Z,7.80
2023-01-15T11:18:42.051Z,7.90
2023-01-15T11:21:24.655Z,8.10
2023-01-15T11:23:56.176Z,8.20
2023-01-15T11:26:26.643Z,8.20
2023-01-15T11:28:56.803Z,8.20
2023-01-15T11:31:36.337Z,8.10
2023-01-15T11:34:07.068Z,8.00
2023-01-15T11:36:39.988Z,8.00
2023-01-15T11:39:30.666Z,7.90
2023-01-15T11:42:21.366Z,7.80
2023-01-15T11:45:12.921Z,8.00
2023-01-15T11:48:09.782Z,8.00
2023-01-15T11:50:49.629Z,7.90
2023-01-15T11:53:27.301Z,8.00
2023-01-15T11:56:01.788Z,7.90
2023-01-15T11:58:33.919Z,7.90
2023-01-15T12:01:06.082Z,7.90
2023-01-15T12:03:38.042Z,7.90
2023-01-15T12:06:12.392Z,8.10
2023-01-15T12:08:57.842Z,8.00
2023-01-15T12:12:01.177Z,8.00
2023-01-15T12:15:00.739Z,8.00
2023-01-15T12:17:46.549Z,8.00
2023-01-15T12:20:29.391Z,7.90
2023-01-15T12:23:15.956Z,7.90
2023-01-15T12:26:01.707Z,7.70
2023-01-15T12:28:32.730Z,7.80
2023-01-15T12:31:08.524Z,7.60
2023-01-15T12:33:44.458Z,7.70
2023-01-15T12:36:17.814Z,8.00
2023-01-15T12:38:51.480Z,7.90
2023-01-15T12:41:50.000Z,7.70
2023-01-15T12:44:39.401Z,7.70
2023-01-15T12:47:14.010Z,7.50
2023-01-15T12:49:47.329Z,7.50
2023-01-15T12:52:20.719Z,7.60
2023-01-15T12:54:53.923Z,7.70
2023-01-15T12:57:34.632Z,7.70
2023-01-15T13:00:13.490Z,7.70
2023-01-15T13:02:59.375Z,7.80
2023-01-15T13:05:31.892Z,8.20
2023-01-15T13:08:07.961Z,8.80
2023-01-15T13:10:36.754Z,9.00
2023-01-15T13:13:17.782Z,8.90
2023-01-15T13:16:07.318Z,9.20
2023-01-15T13:18:47.853Z,9.20
2023-01-15T13:21:17.885Z,8.70
2023-01-15T13:24:10.188Z,8.60
2023-01-15T13:27:00.019Z,8.90
2023-01-15T13:29:40.949Z,8.30
2023-01-15T13:32:16.756Z,8.10
2023-01-15T13:34:48.865Z,8.10
2023-01-15T13:37:27.805Z,7.90
2023-01-15T13:40:01.731Z,7.80
2023-01-15T13:42:33.702Z,8.00
2023-01-15T13:45:26.752Z,7.80
2023-01-15T13:47:58.836Z,7.90
2023-01-15T13:50:31.855Z,7.70
2023-01-15T13:53:09.117Z,7.80
2023-01-15T13:55:41.279Z,7.90
2023-01-15T13:58:33.235Z,7.80
2023-01-15T14:01:09.634Z,7.80
2023-01-15T14:03:41.023Z,7.80
2023-01-15T14:06:11.145Z,7.90
2023-01-15T14:08:41.738Z,7.70
2023-01-15T14:11:36.580Z,7.80
2023-01-15T14:14:43.804Z,7.90
2023-01-15T14:17:29.731Z,7.80
2023-01-15T14:20:19.380Z,7.90
2023-01-15T14:23:03.634Z,7.90
2023-01-15T14:25:44.328Z,7.90
2023-01-15T14:28:28.571Z,7.90
2023-01-15T14:31:24.063Z,7.90
2023-01-15T14:34:13.510Z,7.90
2023-01-15T14:36:50.467Z,8.00
2023-01-15T14:39:42.972Z,7.90
2023-01-15T14:42:34.455Z,7.80
2023-01-15T14:45:07.970Z,8.10
2023-01-15T14:47:46.551Z,8.00
2023-01-15T14:50:34.356Z,7.90
2023-01-15T14:53:27.582Z,7.90
2023-01-15T14:56:03.230Z,7.80
2023-01-15T14:58:47.162Z,7.60
2023-01-15T15:01:26.687Z,7.80
2023-01-15T15:04:01.065Z,7.90
2023-01-15T15:06:31.416Z,7.80
2023-01-15T15:09:05.121Z,7.90
2023-01-15T15:12:01.208Z,7.90
2023-01-15T15:14:31.309Z,7.90
2023-01-15T15:17:02.118Z,7.90
2023-01-15T15:19:36.627Z,7.80
2023-01-15T15:22:09.104Z,7.70
2023-01-15T15:24:43.867Z,7.90
2023-01-15T15:27:18.057Z,7.90
2023-01-15T15:29:46.838Z,7.90
2023-01-15T15:32:21.411Z,7.80
2023-01-15T15:34:52.857Z,7.80
2023-01-15T15:37:26.993Z,7.80
2023-01-15T15:39:59.891Z,7.70
2023-01-15T15:42:50.464Z,7.80
2023-01-15T15:45:40.590Z,7.90
2023-01-15T15:48:31.865Z,7.70
2023-01-15T15:51:00.555Z,7.70
2023-01-15T15:53:31.927Z,7.70
2023-01-15T15:56:01.866Z,7.70
2023-01-15T15:58:35.503Z,7.70
2023-01-15T16:01:05.340Z,7.80
2023-01-15T16:03:34.531Z,7.90
2023-01-15T16:06:05.126Z,7.70
2023-01-15T16:08:54.520Z,7.80
2023-01-15T16:11:27.047Z,7.90
2023-01-15T16:13:58.684Z,7.90
2023-01-15T16:16:29.757Z,7.80
2023-01-15T16:19:00.611Z,7.70
2023-01-15T16:21:32.090Z,7.80
2023-01-15T16:24:03.935Z,7.70
2023-01-15T16:26:37.363Z,7.70
2023-01-15T16:29:07.455Z,7.60
2023-01-15T16:31:38.113Z,7.60
2023-01-15T16:34:07.505Z,7.60
2023-01-15T16:36:47.165Z,7.60
2023-01-15T16:39:24.861Z,7.60
2023-01-15T16:41:58.351Z,7.80
2023-01-15T16:44:34.571Z,7.80
2023-01-15T16:47:04.218Z,7.60
2023-01-15T16:49:33.798Z,7.80
2023-01-15T16:52:03.467Z,7.80
2023-01-15T16:54:46.145Z,7.60
2023-01-15T16:57:30.201Z,7.80
2023-01-15T17:00:03.546Z,7.80
2023-01-15T17:02:47.399Z,7.80
2023-01-15T17:05:24.477Z,7.80
2023-01-15T17:07:55.490Z,7.80
2023-01-15T17:10:28.482Z,7.90
2023-01-15T17:12:57.245Z,7.90
2023-01-15T17:15:39.981Z,7.80
2023-01-15T17:18:27.412Z,7.90
2023-01-15T17:20:56.407Z,8.00
2023-01-15T17:23:28.552Z,8.10
2023-01-15T17:25:59.356Z,7.70
2023-01-15T17:28:30.383Z,7.80
2023-01-15T17:31:01.855Z,7.80
2023-01-15T17:33:30.007Z,7.80
2023-01-15T17:36:00.674Z,7.70
2023-01-15T17:38:29.583Z,7.60
2023-01-15T17:41:02.741Z,7.60
2023-01-15T17:43:31.771Z,7.70
2023-01-15T17:46:00.986Z,7.70
2023-01-15T17:48:33.413Z,7.70
2023-01-15T17:51:02.280Z,7.60
2023-01-15T17:53:32.382Z,7.40
2023-01-15T17:56:19.550Z,7.50
2023-01-15T17:59:05.391Z,7.60
2023-01-15T18:01:57.001Z,7.50
2023-01-15T18:04:47.396Z,7.80
2023-01-15T18:07:16.806Z,7.50
2023-01-15T18:09:50.234Z,7.60
2023-01-15T18:12:20.331Z,7.60
2023-01-15T18:14:49.437Z,7.60
2023-01-15T18:17:17.446Z,7.60
2023-01-15T18:19:46.487Z,7.90
2023-01-15T18:22:15.581Z,7.90
2023-01-15T18:24:45.148Z,7.70
2023-01-15T18:27:13.188Z,7.60
2023-01-15T18:29:43.623Z,7.60
2023-01-15T18:32:11.833Z,7.50
2023-01-15T18:34:40.222Z,7.60
2023-01-15T18:37:08.558Z,7.70
2023-01-15T18:39:37.395Z,7.70
2023-01-15T18:42:23.103Z,7.60
2023-01-15T18:45:17.539Z,7.70
2023-01-15T18:47:45.882Z,7.90
2023-01-15T18:50:13.847Z,7.90
2023-01-15T18:52:51.686Z,7.90
2023-01-15T18:55:21.178Z,8.00
2023-01-15T18:57:49.275Z,7.90
2023-01-15T19:00:20.535Z,7.70
2023-01-15T19:02:49.304Z,7.50
2023-01-15T19:05:19.543Z,7.50
2023-01-15T19:07:48.256Z,7.80
2023-01-15T19:10:19.136Z,7.60
2023-01-15T19:12:49.182Z,7.70
2023-01-15T19:15:38.218Z,7.70
2023-01-15T19:18:25.167Z,7.70
2023-01-15T19:20:53.209Z,7.70
2023-01-15T19:23:21.900Z,7.70
2023-01-15T19:25:51.049Z,7.50
2023-01-15T19:28:21.439Z,7.40
2023-01-15T19:31:05.736Z,7.40
2023-01-15T19:33:34.217Z,7.50
2023-01-15T19:36:02.249Z,7.30
2023-01-15T19:38:31.451Z,7.60
2023-01-15T19:41:19.702Z,7.70
2023-01-15T19:44:06.079Z,7.80
2023-01-15T19:46:53.150Z,7.80
2023-01-15T19:49:43.181Z,7.60
2023-01-15T19:52:28.636Z,7.90
2023-01-15T19:54:57.203Z,7.90
2023-01-15T19:57:25.318Z,8.10
2023-01-15T19:59:53.786Z,8.30
2023-01-15T20:02:25.192Z,8.40
2023-01-15T20:04:53.916Z,8.50
2023-01-15T20:07:22.151Z,8.60
2023-01-15T20:09:50.709Z,8.60
2023-01-15T20:12:37.177Z,8.40
2023-01-15T20:15:06.068Z,8.50
2023-01-15T20:17:35.417Z,8.80
2023-01-15T20:20:04.297Z,8.90
2023-01-15T20:22:33.083Z,8.80
2023-01-15T20:25:02.172Z,8.50
2023-01-15T20:27:31.959Z,8.40
2023-01-15T20:30:01.055Z,8.60
2023-01-15T20:32:29.240Z,8.50
2023-01-15T20:35:01.084Z,8.20
2023-01-15T20:37:29.273Z,8.40
2023-01-15T20:39:57.381Z,8.40
2023-01-15T20:42:46.339Z,8.40
2023-01-15T20:45:16.567Z,8.50
2023-01-15T20:48:02.190Z,8.80
2023-01-15T20:50:34.601Z,8.60
2023-01-15T20:53:03.511Z,8.50
2023-01-15T20:55:45.694Z,8.30
2023-01-15T20:58:19.302Z,8.10
2023-01-15T21:00:47.523Z,8.30
2023-01-15T21:03:15.583Z,8.50
2023-01-15T21:05:46.992Z,8.80
2023-01-15T21:08:15.353Z,8.80
2023-01-15T21:10:43.500Z,8.80
2023-01-15T21:13:13.459Z,8.80
2023-01-15T21:15:44.049Z,8.60
2023-01-15T21:18:12.292Z,8.10
2023-01-15T21:20:42.224Z,8.20
2023-01-15T21:23:11.604Z,8.30
2023-01-15T21:25:40.512Z,8.30
2023-01-15T21:28:08.508Z,8.20
2023-01-15T21:30:36.801Z,8.10
2023-01-15T21:33:08.102Z,8.30
2023-01-15T21:35:39.852Z,8.40
2023-01-15T21:38:08.296Z,8.40
2023-01-15T21:40:39.311Z,8.20
2023-01-15T21:43:26.488Z,8.30
2023-01-15T21:46:02.975Z,8.10
2023-01-15T21:48:32.084Z,8.40
2023-01-15T21:51:00.108Z,8.60
2023-01-15T21:53:28.814Z,8.30
2023-01-15T21:55:58.457Z,8.30
2023-01-15T21:58:26.571Z,8.40
2023-01-15T22:00:54.635Z,8.40
2023-01-15T22:03:23.611Z,8.00
2023-01-15T22:05:51.672Z,7.80
2023-01-15T22:08:20.332Z,8.00
2023-01-15T22:10:51.668Z,8.20
2023-01-15T22:13:21.650Z,8.00
2023-01-15T22:15:55.168Z,8.00
2023-01-15T22:18:25.755Z,7.50
2023-01-15T22:20:59.328Z,7.40
2023-01-15T22:23:28.024Z,7.70
2023-01-15T22:25:57.754Z,7.80
2023-01-15T22:28:28.941Z,7.70
2023-01-15T22:30:57.345Z,7.70
2023-01-15T22:33:25.463Z,7.40
2023-01-15T22:35:59.401Z,7.50
2023-01-15T22:38:28.140Z,7.10
2023-01-15T22:40:59.372Z,7.40
2023-01-15T22:43:37.318Z,7.20
2023-01-15T22:46:12.327Z,6.90
2023-01-15T22:48:40.692Z,6.90
2023-01-15T22:51:08.657Z,7.10
2023-01-15T22:53:37.552Z,7.40
2023-01-15T22:56:06.343Z,7.20
2023-01-15T22:58:36.193Z,7.20
2023-01-15T23:01:05.871Z,7.30
2023-01-15T23:03:35.599Z,7.30
2023-01-15T23:06:06.305Z,7.00
2023-01-15T23:08:35.350Z,6.80
2023-01-15T23:11:03.456Z,7.10
2023-01-15T23:13:35.619Z,6.90
2023-01-15T23:16:04.118Z,6.90
2023-01-15T23:18:32.509Z,7.00
2023-01-15T23:21:05.090Z,7.00
2023-01-15T23:23:34.170Z,7.10
2023-01-15T23:26:03.960Z,6.90
2023-01-15T23:28:32.808Z,7.10
2023-01-15T23:31:02.308Z,6.60
2023-01-15T23:33:30.946Z,6.90
2023-01-15T23:36:00.335Z,7.00
2023-01-15T23:38:30.678Z,7.20
2023-01-15T23:40:59.290Z,7.30
2023-01-15T23:43:45.330Z,7.50
2023-01-15T23:46:35.373Z,7.60
2023-01-15T23:49:06.620Z,7.80
2023-01-15T23:51:35.284Z,7.60
2023-01-15T23:54:04.437Z,7.70
2023-01-15T23:56:34.582Z,7.40
2023-01-15T23:59:05.308Z,7.30
